Time;durP1;ratioP1;P1;durP2;ratioP2;P2;SDS_P1;SDS_P2;PMS_P1;PMS_P2;Temp;Humidity;BMP_temperature;BMP_pressure;BME280_temperature;BME280_humidity;BME280_pressure;Samples;Min_cycle;Max_cycle;Signal;HPM_P1;HPM_P2
2024/03/26 00:02:24;;;;;;;5.33;4.83;;;9.20;90.00;;;;;;5088077;28;20521;-63
2024/03/26 00:04:50;;;;;;;8.20;5.33;;;9.10;90.00;;;;;;5103003;28;20421;-63
2024/03/26 00:07:16;;;;;;;5.10;4.60;;;9.10;90.20;;;;;;5115916;28;20417;-63
2024/03/26 00:09:43;;;;;;;7.87;6.10;;;9.00;90.40;;;;;;5084024;28;20435;-63
2024/03/26 00:19:31;;;;;;;5.63;4.70;;;8.80;90.80;;;;;;5360419;22;20590;-61
2024/03/26 00:27:44;;;;;;;4.63;4.27;;;8.80;91.60;;;;;;4932949;29;20529;-61
2024/03/26 00:30:10;;;;;;;5.83;4.70;;;8.90;92.00;;;;;;4956018;29;20428;-62
2024/03/26 00:32:36;;;;;;;6.47;4.57;;;8.90;91.90;;;;;;4956845;29;20893;-61
2024/03/26 00:35:02;;;;;;;6.20;4.53;;;8.90;91.40;;;;;;4956023;29;20417;-61
2024/03/26 00:37:27;;;;;;;4.80;4.40;;;8.90;91.30;;;;;;4955100;28;20183;-61
2024/03/26 01:01:31;;;;;;;5.00;4.10;;;8.30;91.90;;;;;;4857805;23;20506;-60
2024/03/26 01:03:57;;;;;;;5.07;4.67;;;8.00;92.30;;;;;;5014506;28;20497;-61
2024/03/26 01:06:22;;;;;;;5.20;4.70;;;8.00;93.20;;;;;;5014112;28;20469;-61
2024/03/26 01:08:48;;;;;;;5.47;4.87;;;7.90;93.40;;;;;;5014155;28;20270;-61
2024/03/26 01:11:14;;;;;;;5.10;4.70;;;7.80;94.20;;;;;;5013959;28;20522;-61
2024/03/26 01:13:42;;;;;;;4.90;4.50;;;7.70;94.00;;;;;;5014138;28;20179;-61
2024/03/26 01:16:08;;;;;;;5.73;4.77;;;7.70;94.40;;;;;;5013937;28;20257;-61
2024/03/26 01:18:34;;;;;;;6.23;4.87;;;7.80;95.00;;;;;;5027747;28;20418;-61
2024/03/26 01:21:00;;;;;;;6.73;4.27;;;7.80;94.70;;;;;;5014001;28;20765;-61
2024/03/26 01:23:26;;;;;;;7.63;5.33;;;7.80;94.80;;;;;;5013274;28;20557;-61
2024/03/26 01:25:51;;;;;;;7.20;4.53;;;7.80;94.80;;;;;;5014210;28;20191;-61
2024/03/26 01:28:17;;;;;;;6.73;4.70;;;7.90;94.90;;;;;;5013279;28;20182;-61
2024/03/26 01:30:43;;;;;;;6.07;4.57;;;8.00;95.90;;;;;;5013818;28;20195;-61
2024/03/26 01:33:09;;;;;;;10.40;5.27;;;8.20;99.90;;;;;;5013691;28;20207;-60
2024/03/26 01:35:35;;;;;;;5.30;4.33;;;8.20;97.60;;;;;;5013396;28;20419;-61
2024/03/26 01:38:01;;;;;;;4.90;4.40;;;8.20;94.90;;;;;;5011871;28;20979;-61
2024/03/26 01:40:26;;;;;;;8.20;4.30;;;8.20;95.40;;;;;;5013023;28;20407;-61
2024/03/26 01:42:52;;;;;;;4.20;3.80;;;8.30;96.40;;;;;;5013878;28;20202;-61
2024/03/26 01:45:18;;;;;;;5.33;4.63;;;8.40;95.40;;;;;;5012968;28;20202;-61
2024/03/26 01:47:45;;;;;;;6.37;3.93;;;8.50;96.10;;;;;;5013341;28;20635;-61
2024/03/26 01:50:12;;;;;;;7.57;4.60;;;8.60;95.30;;;;;;5012864;28;20175;-61
2024/03/26 01:52:38;;;;;;;4.80;4.07;;;8.70;94.30;;;;;;5013251;28;20909;-61
2024/03/26 01:55:07;;;;;;;5.10;4.60;;;8.70;93.60;;;;;;5013415;28;20404;-61
2024/03/26 01:57:37;;;;;;;5.03;4.03;;;8.70;93.60;;;;;;5011261;28;20822;-61
2024/03/26 02:00:03;;;;;;;5.90;4.20;;;8.70;93.90;;;;;;5013223;28;20476;-61
2024/03/26 02:02:29;;;;;;;4.83;4.47;;;8.80;94.80;;;;;;5012043;28;20458;-61
2024/03/26 02:04:55;;;;;;;5.80;5.07;;;8.80;94.70;;;;;;5013436;28;20516;-61
2024/03/26 02:07:22;;;;;;;5.50;5.00;;;8.80;94.60;;;;;;5011423;28;20838;-61
2024/03/26 02:09:48;;;;;;;6.37;4.80;;;8.80;94.60;;;;;;5013160;28;20223;-61
2024/03/26 02:12:14;;;;;;;5.33;4.90;;;8.80;95.30;;;;;;5012630;28;20502;-61
2024/03/26 02:14:40;;;;;;;4.90;4.50;;;8.80;95.90;;;;;;5013222;28;20816;-61
2024/03/26 02:17:06;;;;;;;5.27;4.40;;;8.80;95.90;;;;;;5013158;28;20172;-61
2024/03/26 02:19:32;;;;;;;3.80;3.50;;;8.90;95.20;;;;;;5010854;28;20699;-61
2024/03/26 02:21:58;;;;;;;4.30;3.90;;;8.90;94.70;;;;;;5012638;28;20420;-61
2024/03/26 02:24:24;;;;;;;4.40;4.07;;;9.00;94.30;;;;;;5012360;28;20539;-61
2024/03/26 02:26:51;;;;;;;5.17;4.13;;;9.00;94.10;;;;;;5009648;28;20787;-61
2024/03/26 02:29:16;;;;;;;4.40;4.00;;;9.00;94.30;;;;;;5009249;28;20901;-61
2024/03/26 02:31:42;;;;;;;5.57;4.13;;;9.00;94.80;;;;;;5012861;28;20412;-61
2024/03/26 02:34:08;;;;;;;6.47;5.07;;;9.00;94.30;;;;;;5011622;28;20199;-61
2024/03/26 02:36:33;;;;;;;6.50;4.20;;;9.10;93.90;;;;;;5011307;28;20187;-61
2024/03/26 02:38:59;;;;;;;4.93;4.30;;;9.10;93.90;;;;;;5012531;28;20691;-62
2024/03/26 02:41:25;;;;;;;4.70;4.20;;;9.10;93.20;;;;;;5011275;28;20276;-62
2024/03/26 02:43:51;;;;;;;6.27;4.07;;;9.20;93.20;;;;;;5011903;28;20574;-61
2024/03/26 02:46:17;;;;;;;4.67;4.23;;;9.20;94.60;;;;;;5011133;28;20445;-61
2024/03/26 02:48:43;;;;;;;6.03;3.90;;;9.30;94.00;;;;;;5012958;28;20265;-61
2024/03/26 02:51:09;;;;;;;4.67;4.20;;;9.30;92.40;;;;;;5014110;28;20535;-61
2024/03/26 02:53:34;;;;;;;4.60;4.20;;;9.30;92.00;;;;;;5015069;28;20185;-61
2024/03/26 02:56:00;;;;;;;3.80;3.47;;;9.30;92.70;;;;;;5016273;28;20687;-61
2024/03/26 02:58:26;;;;;;;5.90;4.37;;;9.30;92.30;;;;;;5014781;28;20269;-61
2024/03/26 03:00:51;;;;;;;4.50;4.00;;;9.40;92.00;;;;;;5015780;28;20649;-61
2024/03/26 03:03:17;;;;;;;4.73;4.40;;;9.40;92.10;;;;;;5016039;28;20344;-61
2024/03/26 03:05:44;;;;;;;5.43;4.20;;;9.40;91.80;;;;;;5015731;28;20188;-61
2024/03/26 03:08:09;;;;;;;4.80;4.17;;;9.50;91.20;;;;;;5015695;28;20186;-61
2024/03/26 03:10:35;;;;;;;4.10;3.80;;;9.50;90.80;;;;;;5015856;28;20411;-61
2024/03/26 03:13:01;;;;;;;5.10;3.33;;;9.40;90.60;;;;;;5015255;28;20195;-61
2024/03/26 03:15:26;;;;;;;5.33;4.57;;;9.50;90.40;;;;;;5015192;28;20186;-61
2024/03/26 03:17:52;;;;;;;4.20;3.70;;;9.50;91.20;;;;;;5016170;28;20182;-61
2024/03/26 03:20:18;;;;;;;4.03;3.60;;;9.50;91.50;;;;;;5014589;28;20201;-61
2024/03/26 03:22:44;;;;;;;4.60;4.20;;;9.50;92.00;;;;;;5015213;28;20188;-61
2024/03/26 03:25:10;;;;;;;4.67;4.20;;;9.50;92.50;;;;;;5014932;28;20433;-61
2024/03/26 03:27:36;;;;;;;3.90;3.60;;;9.50;92.20;;;;;;5015556;28;20645;-61
2024/03/26 03:30:02;;;;;;;4.20;3.90;;;9.50;92.90;;;;;;5014864;28;20186;-61
2024/03/26 03:32:28;;;;;;;4.37;3.97;;;9.60;91.90;;;;;;5014291;28;20186;-61
2024/03/26 03:34:54;;;;;;;4.10;3.70;;;9.60;95.00;;;;;;5015930;28;20479;-61
2024/03/26 03:37:20;;;;;;;4.20;3.80;;;9.70;92.60;;;;;;5014383;28;20186;-61
2024/03/26 03:39:45;;;;;;;4.57;4.17;;;9.60;90.60;;;;;;5013216;28;20527;-61
2024/03/26 03:42:11;;;;;;;4.13;3.83;;;9.60;90.70;;;;;;5014448;28;20425;-61
2024/03/26 03:44:37;;;;;;;4.27;3.97;;;9.50;90.30;;;;;;5014268;28;20449;-61
2024/03/26 03:47:03;;;;;;;4.20;3.83;;;9.50;90.90;;;;;;5014874;28;20191;-61
2024/03/26 03:49:30;;;;;;;4.07;3.77;;;9.50;90.40;;;;;;5015138;28;20185;-61
2024/03/26 03:51:56;;;;;;;4.17;3.77;;;9.40;90.60;;;;;;5014818;28;20426;-61
2024/03/26 03:54:25;;;;;;;3.90;3.67;;;9.40;92.50;;;;;;5014093;28;20781;-61
2024/03/26 03:56:51;;;;;;;4.07;3.57;;;9.40;92.10;;;;;;5015308;28;20452;-61
2024/03/26 03:59:17;;;;;;;4.00;3.70;;;9.50;92.00;;;;;;5014039;28;20446;-61
2024/03/26 04:01:43;;;;;;;4.00;3.50;;;9.50;91.40;;;;;;5013346;28;20495;-61
2024/03/26 04:04:09;;;;;;;4.20;3.90;;;9.50;91.50;;;;;;5015395;28;20213;-61
2024/03/26 04:06:35;;;;;;;4.70;4.27;;;9.60;91.30;;;;;;5013323;28;20189;-61
2024/03/26 04:09:00;;;;;;;5.80;4.00;;;9.60;92.20;;;;;;5014534;28;20179;-61
2024/03/26 04:11:26;;;;;;;6.70;3.80;;;9.70;92.10;;;;;;5014723;28;20415;-61
2024/03/26 04:13:52;;;;;;;4.07;3.73;;;9.60;92.80;;;;;;5014223;28;20653;-61
2024/03/26 04:16:17;;;;;;;4.27;3.73;;;9.70;93.10;;;;;;5014264;28;20184;-61
2024/03/26 04:18:45;;;;;;;3.40;3.10;;;9.60;93.10;;;;;;5012245;28;20185;-61
2024/03/26 04:21:11;;;;;;;4.00;3.60;;;9.60;93.20;;;;;;5014408;28;20186;-61
2024/03/26 04:23:36;;;;;;;3.63;3.30;;;9.60;92.40;;;;;;5014536;28;20466;-61
2024/03/26 04:26:02;;;;;;;3.90;3.50;;;9.60;92.30;;;;;;5014045;28;20437;-61
2024/03/26 04:28:28;;;;;;;3.57;3.37;;;9.70;92.00;;;;;;5012455;28;20192;-61
2024/03/26 04:30:54;;;;;;;3.40;3.20;;;9.60;91.80;;;;;;5014252;28;20442;-61
2024/03/26 04:33:20;;;;;;;4.20;3.80;;;9.70;91.90;;;;;;5013400;28;20450;-61
2024/03/26 04:35:47;;;;;;;4.30;3.83;;;9.60;91.80;;;;;;5013814;28;20421;-61
2024/03/26 04:38:13;;;;;;;4.30;3.40;;;9.60;91.50;;;;;;5014515;28;20418;-61
2024/03/26 04:40:39;;;;;;;5.00;4.30;;;9.60;90.80;;;;;;5013079;28;20866;-61
2024/03/26 04:43:08;;;;;;;5.90;3.50;;;9.70;90.60;;;;;;5013693;28;20587;-61
2024/03/26 04:45:34;;;;;;;3.33;3.13;;;9.70;90.40;;;;;;5014037;28;20794;-61
2024/03/26 04:48:00;;;;;;;4.23;3.57;;;9.80;90.90;;;;;;5013361;28;20438;-61
2024/03/26 04:50:26;;;;;;;4.23;4.03;;;9.80;91.40;;;;;;5013343;28;20442;-62
2024/03/26 04:52:53;;;;;;;4.60;4.27;;;9.80;90.30;;;;;;5012670;28;20585;-61
2024/03/26 04:55:19;;;;;;;4.37;3.33;;;9.80;90.30;;;;;;5008945;28;20541;-61
2024/03/26 04:57:45;;;;;;;3.37;3.13;;;9.80;90.00;;;;;;5007364;28;21024;-61
2024/03/26 05:00:14;;;;;;;3.90;3.57;;;9.80;90.70;;;;;;5013517;28;20241;-61
2024/03/26 05:02:41;;;;;;;4.57;4.20;;;9.90;91.40;;;;;;5011732;28;20563;-61
2024/03/26 05:05:07;;;;;;;3.63;3.40;;;9.90;91.80;;;;;;5010959;28;20563;-61
2024/03/26 05:07:34;;;;;;;5.60;5.20;;;9.80;91.80;;;;;;5008657;28;20430;-61
2024/03/26 05:10:00;;;;;;;4.30;3.97;;;9.80;92.30;;;;;;5012951;28;20512;-61
2024/03/26 05:12:26;;;;;;;3.90;3.60;;;9.80;92.40;;;;;;5011628;28;20494;-61
2024/03/26 05:14:52;;;;;;;4.30;3.90;;;9.80;92.80;;;;;;5013279;28;20539;-61
2024/03/26 05:17:18;;;;;;;4.57;3.67;;;9.70;92.50;;;;;;5014180;28;20409;-61
2024/03/26 05:19:43;;;;;;;4.07;3.77;;;9.70;92.20;;;;;;5012159;28;20183;-61
2024/03/26 05:22:09;;;;;;;4.10;3.80;;;9.70;93.00;;;;;;5012923;28;20661;-61
2024/03/26 05:24:38;;;;;;;4.00;3.60;;;9.70;93.20;;;;;;5011693;28;20292;-61
2024/03/26 05:27:04;;;;;;;4.33;3.77;;;9.70;92.90;;;;;;5012655;28;20186;-61
2024/03/26 05:29:29;;;;;;;4.87;4.37;;;9.60;92.70;;;;;;5011901;28;20788;-61
2024/03/26 05:31:55;;;;;;;3.73;3.43;;;9.60;92.70;;;;;;5012933;28;20432;-60
2024/03/26 05:34:24;;;;;;;4.67;4.20;;;9.60;92.70;;;;;;5012366;28;20193;-61
2024/03/26 05:36:49;;;;;;;4.77;4.23;;;9.60;92.00;;;;;;5012013;28;20192;-59
2024/03/26 05:39:15;;;;;;;5.30;4.90;;;9.60;92.80;;;;;;5013065;28;20438;-60
2024/03/26 05:41:41;;;;;;;5.37;4.63;;;9.60;93.00;;;;;;5011778;28;20625;-59
2024/03/26 05:44:06;;;;;;;4.20;3.90;;;9.60;92.80;;;;;;5012660;28;20202;-60
2024/03/26 05:46:33;;;;;;;5.40;4.90;;;9.60;92.70;;;;;;5012740;28;20183;-61
2024/03/26 05:49:00;;;;;;;5.43;4.97;;;9.60;93.20;;;;;;5013648;28;20173;-61
2024/03/26 05:51:26;;;;;;;7.43;6.10;;;9.60;93.30;;;;;;5012437;28;20804;-62
2024/03/26 05:53:51;;;;;;;11.60;5.67;;;9.60;93.20;;;;;;5013529;28;20450;-57
2024/03/26 05:56:17;;;;;;;7.40;4.70;;;9.60;93.50;;;;;;5010687;28;20440;-59
2024/03/26 05:58:43;;;;;;;6.90;6.40;;;9.60;93.50;;;;;;5011702;28;20439;-59
2024/03/26 06:01:09;;;;;;;4.87;4.50;;;9.70;93.70;;;;;;5013027;28;20177;-60
2024/03/26 06:03:36;;;;;;;4.77;4.47;;;9.70;94.30;;;;;;5012060;28;20218;-62
2024/03/26 06:06:02;;;;;;;8.40;7.70;;;9.70;94.20;;;;;;5012488;28;20177;-59
2024/03/26 06:08:28;;;;;;;8.47;4.60;;;9.70;95.00;;;;;;5012010;28;20819;-61
2024/03/26 06:10:54;;;;;;;8.50;7.17;;;9.60;93.90;;;;;;5012765;28;20431;-59
2024/03/26 06:13:19;;;;;;;8.93;8.23;;;9.70;94.30;;;;;;5012241;28;20439;-59
2024/03/26 06:15:45;;;;;;;7.17;6.00;;;9.70;94.40;;;;;;5011613;28;20251;-60
2024/03/26 06:18:11;;;;;;;9.00;5.73;;;9.70;93.80;;;;;;5011906;28;20257;-60
2024/03/26 06:20:36;;;;;;;6.70;6.10;;;9.70;93.30;;;;;;5011912;28;20199;-60
2024/03/26 06:23:02;;;;;;;6.27;5.67;;;9.80;94.70;;;;;;5005203;28;20681;-59
2024/03/26 06:25:29;;;;;;;10.70;6.70;;;9.80;94.30;;;;;;5000967;28;20188;-60
2024/03/26 06:27:55;;;;;;;6.40;4.80;;;9.90;93.90;;;;;;5000537;28;20180;-59
2024/03/26 06:30:21;;;;;;;7.97;5.67;;;9.90;93.60;;;;;;5009002;28;20431;-60
2024/03/26 06:32:49;;;;;;;6.53;5.87;;;9.90;93.20;;;;;;5011401;28;20489;-59
2024/03/26 06:35:15;;;;;;;5.70;5.10;;;9.90;93.60;;;;;;5012990;28;20168;-59
2024/03/26 06:37:41;;;;;;;5.20;4.30;;;9.90;93.30;;;;;;5011361;28;20519;-60
2024/03/26 06:40:07;;;;;;;9.33;5.67;;;9.90;92.00;;;;;;5007611;28;20434;-60
2024/03/26 06:42:33;;;;;;;7.00;4.57;;;9.90;92.00;;;;;;5011393;28;20267;-59
2024/03/26 06:44:59;;;;;;;5.37;4.87;;;9.90;92.10;;;;;;5010262;28;20563;-59
2024/03/26 06:47:24;;;;;;;6.27;5.30;;;10.00;92.70;;;;;;5011597;28;20182;-59
2024/03/26 06:49:50;;;;;;;6.70;5.60;;;10.00;92.40;;;;;;4993548;28;20599;-60
2024/03/26 06:52:16;;;;;;;4.40;4.00;;;10.00;92.20;;;;;;5009322;28;20182;-60
2024/03/26 06:54:43;;;;;;;8.23;4.97;;;10.00;89.80;;;;;;5011380;28;20272;-60
2024/03/26 06:57:09;;;;;;;5.80;5.50;;;10.00;90.20;;;;;;5005187;28;20440;-61
2024/03/26 06:59:36;;;;;;;3.73;3.30;;;10.10;87.40;;;;;;5007421;28;20775;-60
2024/03/26 07:02:03;;;;;;;3.70;3.40;;;10.20;85.90;;;;;;4996702;28;20924;-59
2024/03/26 07:04:33;;;;;;;4.63;4.23;;;10.20;85.60;;;;;;5006184;28;20960;-61
2024/03/26 07:06:59;;;;;;;4.30;4.00;;;10.30;85.50;;;;;;5012047;28;20909;-59
2024/03/26 07:09:25;;;;;;;4.20;3.80;;;10.40;86.00;;;;;;5011299;28;20417;-59
2024/03/26 07:11:50;;;;;;;3.70;3.50;;;10.40;84.70;;;;;;5012617;28;20477;-59
2024/03/26 07:14:19;;;;;;;3.50;3.30;;;10.40;84.40;;;;;;5012396;28;20525;-59
2024/03/26 07:16:46;;;;;;;3.60;3.40;;;10.30;84.60;;;;;;5010458;28;20175;-59
2024/03/26 07:19:12;;;;;;;3.83;3.70;;;10.40;83.60;;;;;;5010353;28;20940;-59
2024/03/26 07:21:39;;;;;;;3.97;3.77;;;10.50;84.30;;;;;;5010582;28;20430;-59
2024/03/26 07:24:06;;;;;;;5.40;4.90;;;10.50;83.70;;;;;;5012129;28;20450;-59
2024/03/26 07:26:32;;;;;;;4.67;4.27;;;10.50;82.60;;;;;;5010079;28;20439;-59
2024/03/26 07:28:58;;;;;;;5.80;5.50;;;10.40;82.40;;;;;;5011103;28;20864;-60
2024/03/26 07:31:24;;;;;;;3.67;3.37;;;10.40;84.00;;;;;;5008406;28;20924;-60
2024/03/26 07:33:50;;;;;;;3.77;3.47;;;10.60;84.10;;;;;;5008713;28;20435;-61
2024/03/26 07:36:16;;;;;;;5.40;4.00;;;10.40;82.20;;;;;;5003836;28;20755;-61
2024/03/26 07:38:43;;;;;;;4.80;4.50;;;10.40;82.90;;;;;;5014412;28;20437;-61
2024/03/26 07:41:09;;;;;;;4.40;4.20;;;10.40;83.60;;;;;;5014883;28;20438;-61
2024/03/26 07:43:34;;;;;;;3.90;3.50;;;10.50;83.80;;;;;;5015413;28;20461;-61
2024/03/26 07:46:00;;;;;;;4.23;3.90;;;10.70;84.30;;;;;;5013713;28;20317;-61
2024/03/26 07:48:26;;;;;;;3.87;3.63;;;10.70;83.20;;;;;;5013195;28;20187;-61
2024/03/26 07:50:52;;;;;;;3.40;3.20;;;10.80;83.20;;;;;;5015135;28;20186;-61
2024/03/26 07:53:17;;;;;;;4.23;3.73;;;10.90;83.70;;;;;;5014663;28;20203;-60
2024/03/26 07:55:43;;;;;;;3.60;3.40;;;11.00;83.00;;;;;;5014367;28;20212;-60
2024/03/26 07:58:09;;;;;;;3.60;3.40;;;11.10;84.00;;;;;;5015951;28;20167;-60
2024/03/26 08:00:35;;;;;;;5.60;5.20;;;11.20;84.00;;;;;;5013113;28;20190;-60
2024/03/26 08:03:01;;;;;;;3.53;3.23;;;11.20;82.10;;;;;;5014034;28;20274;-60
2024/03/26 08:05:26;;;;;;;3.57;3.33;;;11.30;80.60;;;;;;5014922;28;20452;-61
2024/03/26 08:07:55;;;;;;;5.27;4.87;;;11.20;80.40;;;;;;5013618;28;20481;-60
2024/03/26 08:10:21;;;;;;;3.80;3.60;;;11.30;81.70;;;;;;5014171;28;20173;-60
2024/03/26 08:12:46;;;;;;;3.50;3.20;;;11.40;82.90;;;;;;5014675;28;20412;-60
2024/03/26 08:15:12;;;;;;;3.97;3.77;;;11.50;82.20;;;;;;5014246;28;20175;-60
2024/03/26 08:17:38;;;;;;;4.23;3.93;;;11.40;81.70;;;;;;5013819;28;20530;-60
2024/03/26 08:20:05;;;;;;;4.33;4.00;;;11.40;80.90;;;;;;5013776;28;20706;-60
2024/03/26 08:22:32;;;;;;;4.70;4.23;;;11.40;81.10;;;;;;5010418;28;20412;-60
2024/03/26 08:24:58;;;;;;;4.67;3.80;;;11.40;81.00;;;;;;5013381;28;20680;-60
2024/03/26 08:27:24;;;;;;;4.43;4.03;;;11.30;81.50;;;;;;5014780;28;20430;-60
2024/03/26 08:29:51;;;;;;;3.90;3.13;;;11.40;83.20;;;;;;5023007;28;20810;-60
2024/03/26 08:32:16;;;;;;;5.50;5.00;;;11.50;83.10;;;;;;5012157;28;20527;-60
2024/03/26 08:34:42;;;;;;;5.87;3.40;;;11.70;83.40;;;;;;5015665;28;20549;-62
2024/03/26 08:37:08;;;;;;;3.57;3.37;;;11.80;84.10;;;;;;5013826;28;20301;-60
2024/03/26 08:39:34;;;;;;;3.40;3.20;;;11.90;81.90;;;;;;5014362;28;20223;-60
2024/03/26 08:42:00;;;;;;;5.03;3.70;;;11.90;82.20;;;;;;5013708;28;20544;-60
2024/03/26 08:44:26;;;;;;;4.37;3.97;;;12.10;82.20;;;;;;5013857;28;20469;-60
2024/03/26 08:46:51;;;;;;;4.83;4.37;;;12.20;82.10;;;;;;5013758;28;20245;-61
2024/03/26 08:49:17;;;;;;;3.97;3.67;;;12.30;82.30;;;;;;5012453;28;20679;-60
2024/03/26 08:51:43;;;;;;;6.97;6.37;;;12.40;83.30;;;;;;5012417;28;20183;-61
2024/03/26 08:54:09;;;;;;;20.27;13.53;;;12.50;82.50;;;;;;5013027;28;20194;-60
2024/03/26 08:56:34;;;;;;;4.87;3.70;;;12.50;80.70;;;;;;5014594;28;20205;-60
2024/03/26 08:59:00;;;;;;;6.60;4.30;;;12.50;80.80;;;;;;5011417;28;20220;-60
2024/03/26 09:01:26;;;;;;;10.00;6.80;;;12.50;80.30;;;;;;5011972;28;20261;-61
2024/03/26 09:03:51;;;;;;;9.10;6.53;;;12.40;79.80;;;;;;5012982;28;20215;-61
2024/03/26 09:06:17;;;;;;;3.50;3.20;;;12.30;80.00;;;;;;5012209;28;20268;-60
2024/03/26 09:08:43;;;;;;;12.67;7.40;;;12.00;79.30;;;;;;5007926;28;20280;-60
2024/03/26 09:11:09;;;;;;;4.40;3.50;;;12.10;79.70;;;;;;5012833;28;20253;-60
2024/03/26 09:13:39;;;;;;;6.07;4.30;;;11.90;79.40;;;;;;5013453;28;20428;-60
2024/03/26 09:16:07;;;;;;;7.07;6.37;;;11.80;81.80;;;;;;5012465;28;20184;-60
2024/03/26 09:18:33;;;;;;;3.60;3.30;;;11.90;81.60;;;;;;5013311;28;20518;-60
2024/03/26 09:20:59;;;;;;;5.47;4.97;;;11.70;79.50;;;;;;5012426;28;20439;-60
2024/03/26 09:23:24;;;;;;;6.50;5.90;;;11.80;80.60;;;;;;5013764;28;20462;-60
2024/03/26 09:25:50;;;;;;;3.00;2.77;;;12.10;81.50;;;;;;5012555;28;20598;-60
2024/03/26 09:28:16;;;;;;;5.60;3.90;;;12.10;80.90;;;;;;5011881;28;20663;-60
2024/03/26 09:30:42;;;;;;;6.20;5.70;;;12.20;81.90;;;;;;5013087;28;20178;-60
2024/03/26 09:33:08;;;;;;;4.40;4.10;;;12.30;81.40;;;;;;5012434;28;20194;-60
2024/03/26 09:35:34;;;;;;;3.27;3.10;;;12.20;80.60;;;;;;5011191;28;21001;-60
2024/03/26 09:38:00;;;;;;;4.43;3.50;;;12.20;80.10;;;;;;5011335;28;20911;-61
2024/03/26 09:40:26;;;;;;;4.43;4.03;;;11.90;80.40;;;;;;5012879;28;20174;-60
2024/03/26 09:42:52;;;;;;;5.50;5.00;;;12.10;81.00;;;;;;5011477;28;20821;-60
2024/03/26 09:45:19;;;;;;;22.07;14.60;;;12.20;81.10;;;;;;5013041;28;20237;-60
2024/03/26 09:47:48;;;;;;;23.97;16.60;;;12.10;80.70;;;;;;5010582;28;20597;-61
2024/03/26 09:50:14;;;;;;;8.40;7.50;;;12.10;81.90;;;;;;5011660;28;20473;-60
2024/03/26 09:52:46;;;;;;;17.23;11.27;;;12.10;82.50;;;;;;5011442;28;20430;-61
2024/03/26 09:55:13;;;;;;;9.47;7.90;;;12.20;82.70;;;;;;5012294;28;20431;-62
2024/03/26 09:57:39;;;;;;;6.60;6.00;;;12.30;82.70;;;;;;5011470;28;20432;-61
2024/03/26 10:00:06;;;;;;;4.50;4.20;;;12.40;82.60;;;;;;5012042;28;20827;-63
2024/03/26 10:02:32;;;;;;;8.70;7.80;;;12.30;82.20;;;;;;5011674;28;20225;-63
2024/03/26 10:04:58;;;;;;;6.00;5.40;;;12.20;84.00;;;;;;5011181;28;20477;-63
2024/03/26 10:07:24;;;;;;;4.07;3.77;;;12.40;83.40;;;;;;5013107;28;20629;-63
2024/03/26 10:09:50;;;;;;;4.57;4.10;;;12.40;83.00;;;;;;5011371;28;20203;-63
2024/03/26 10:12:15;;;;;;;4.40;2.90;;;12.50;83.20;;;;;;5011921;28;20472;-63
2024/03/26 10:14:41;;;;;;;5.70;4.80;;;12.40;83.00;;;;;;5009946;28;20182;-63
2024/03/26 10:17:07;;;;;;;8.37;4.93;;;12.50;82.40;;;;;;5012139;28;20221;-63
2024/03/26 10:19:33;;;;;;;4.43;4.13;;;12.50;82.60;;;;;;5011769;28;20269;-63
2024/03/26 10:21:59;;;;;;;2.50;2.30;;;12.60;82.00;;;;;;5011269;28;20183;-63
2024/03/26 10:24:25;;;;;;;3.10;2.90;;;12.50;81.00;;;;;;5010392;28;20465;-62
2024/03/26 10:26:53;;;;;;;4.80;4.40;;;12.40;81.10;;;;;;5011262;28;20430;-63
2024/03/26 10:29:19;;;;;;;3.30;2.70;;;12.50;82.70;;;;;;5012060;28;20261;-64
2024/03/26 10:31:48;;;;;;;3.00;2.80;;;12.60;82.80;;;;;;5012149;28;20553;-63
2024/03/26 10:34:16;;;;;;;5.20;4.80;;;12.70;81.40;;;;;;5011432;28;20936;-63
2024/03/26 10:36:42;;;;;;;3.70;3.50;;;12.80;80.90;;;;;;5011325;28;20575;-64
2024/03/26 10:39:11;;;;;;;12.50;8.33;;;12.70;80.20;;;;;;5013043;28;20450;-63
2024/03/26 10:41:40;;;;;;;20.47;12.50;;;12.80;80.80;;;;;;5011785;28;20229;-63
2024/03/26 10:44:06;;;;;;;11.10;6.13;;;12.90;81.80;;;;;;5010863;28;20898;-63
2024/03/26 10:46:33;;;;;;;4.17;3.60;;;13.00;82.80;;;;;;5011677;28;20433;-63
2024/03/26 10:49:01;;;;;;;3.00;2.90;;;13.00;81.10;;;;;;5009618;28;20437;-63
2024/03/26 10:51:29;;;;;;;4.80;3.57;;;13.10;81.50;;;;;;5010696;28;20457;-64
2024/03/26 10:53:59;;;;;;;3.23;3.13;;;13.10;79.90;;;;;;5012135;28;20501;-64
2024/03/26 10:56:26;;;;;;;2.93;2.83;;;13.10;81.30;;;;;;5011897;28;20429;-63
2024/03/26 10:58:57;;;;;;;3.77;3.50;;;13.10;81.60;;;;;;5010663;28;20979;-64
2024/03/26 11:01:25;;;;;;;3.50;3.20;;;13.30;83.20;;;;;;5012637;28;20798;-63
2024/03/26 11:03:52;;;;;;;3.90;3.60;;;13.30;81.20;;;;;;5009923;28;20493;-64
2024/03/26 11:06:21;;;;;;;4.23;4.03;;;13.20;81.40;;;;;;5010977;28;20858;-63
2024/03/26 11:08:47;;;;;;;11.80;8.57;;;13.20;83.20;;;;;;5011353;28;20487;-64
2024/03/26 11:11:18;;;;;;;3.73;3.53;;;13.30;82.20;;;;;;5015560;28;20814;-63
2024/03/26 11:13:44;;;;;;;3.07;2.97;;;13.30;82.10;;;;;;5015295;28;20434;-65
2024/03/26 11:16:56;;;;;;;3.20;3.10;;;13.20;82.30;;;;;;5015121;28;20940;-63
2024/03/26 11:19:28;;;;;;;3.47;3.20;;;13.10;83.00;;;;;;5013082;28;20433;-63
2024/03/26 11:21:54;;;;;;;3.20;3.00;;;13.00;83.60;;;;;;5016160;28;20740;-63
2024/03/26 11:24:25;;;;;;;4.10;3.80;;;12.90;83.50;;;;;;5015219;28;20563;-63
2024/03/26 11:26:51;;;;;;;3.90;3.60;;;12.90;84.60;;;;;;5014778;28;20516;-64
2024/03/26 11:29:18;;;;;;;3.10;2.90;;;12.90;85.00;;;;;;5013743;28;20436;-63
2024/03/26 11:31:46;;;;;;;3.90;3.60;;;13.00;85.80;;;;;;5014982;28;20420;-63
2024/03/26 11:34:15;;;;;;;3.50;3.30;;;13.10;85.60;;;;;;5016114;28;20448;-63
2024/03/26 11:36:42;;;;;;;4.13;3.73;;;12.90;86.30;;;;;;5015103;28;20421;-63
2024/03/26 11:39:09;;;;;;;3.40;3.20;;;13.00;88.00;;;;;;5014470;28;20477;-63
2024/03/26 11:41:35;;;;;;;3.83;3.40;;;13.10;87.70;;;;;;5016210;28;20485;-63
2024/03/26 11:44:01;;;;;;;5.10;4.30;;;13.20;87.40;;;;;;5014255;28;20453;-63
2024/03/26 11:46:27;;;;;;;4.40;4.00;;;13.10;87.70;;;;;;5015132;28;20406;-63
2024/03/26 11:48:58;;;;;;;4.87;4.10;;;13.10;89.00;;;;;;5014047;28;20429;-64
2024/03/26 11:51:24;;;;;;;14.27;11.10;;;13.20;89.60;;;;;;5014990;28;20570;-63
2024/03/26 11:53:50;;;;;;;4.20;3.83;;;13.30;90.10;;;;;;5015210;28;20410;-64
2024/03/26 11:56:17;;;;;;;3.00;2.80;;;13.20;90.20;;;;;;5013506;28;20519;-64
2024/03/26 11:58:47;;;;;;;2.80;2.70;;;13.20;90.80;;;;;;5015645;28;20181;-63
2024/03/26 12:01:12;;;;;;;3.10;2.90;;;13.30;90.60;;;;;;5014478;28;20445;-63
2024/03/26 12:03:49;;;;;;;4.33;3.93;;;13.40;91.20;;;;;;5014953;28;20957;-63
2024/03/26 12:06:15;;;;;;;4.70;3.80;;;13.30;91.90;;;;;;5013669;28;20438;-63
2024/03/26 12:08:40;;;;;;;3.70;3.33;;;13.30;90.90;;;;;;5012151;28;20589;-63
2024/03/26 12:11:06;;;;;;;5.07;3.80;;;13.40;91.40;;;;;;5014195;28;20220;-67
2024/03/26 12:13:32;;;;;;;3.33;3.10;;;13.50;90.90;;;;;;5013847;28;20593;-63
2024/03/26 12:15:58;;;;;;;4.20;3.83;;;13.50;90.90;;;;;;5014329;28;20202;-64
2024/03/26 12:18:23;;;;;;;3.90;3.50;;;13.60;91.20;;;;;;5013880;28;20535;-63
2024/03/26 12:20:49;;;;;;;4.73;3.20;;;13.50;90.40;;;;;;5012426;28;20241;-62
2024/03/26 12:23:15;;;;;;;3.13;2.93;;;13.40;90.80;;;;;;5014353;28;20202;-61
2024/03/26 12:25:44;;;;;;;20.13;15.10;;;13.40;91.30;;;;;;5013126;28;20187;-62
2024/03/26 12:28:12;;;;;;;73.97;50.83;;;13.50;91.10;;;;;;5012742;28;20649;-61
2024/03/26 12:30:38;;;;;;;4.07;3.80;;;13.70;91.10;;;;;;5014641;28;20458;-61
2024/03/26 12:33:06;;;;;;;5.33;3.50;;;13.50;90.60;;;;;;5013247;28;20930;-61
2024/03/26 12:35:32;;;;;;;4.70;4.30;;;13.50;90.50;;;;;;5013962;28;20185;-64
2024/03/26 12:37:58;;;;;;;5.00;4.60;;;13.50;90.60;;;;;;4996275;28;20414;-61
2024/03/26 12:40:23;;;;;;;2.97;2.87;;;13.60;90.20;;;;;;5013597;28;20197;-61
2024/03/26 12:42:49;;;;;;;3.80;2.67;;;13.70;90.10;;;;;;5013161;28;20191;-63
2024/03/26 12:45:15;;;;;;;3.23;3.03;;;13.70;90.30;;;;;;5013849;28;20181;-61
2024/03/26 12:47:41;;;;;;;3.43;2.80;;;13.60;89.50;;;;;;5013589;28;20183;-61
2024/03/26 12:50:07;;;;;;;3.27;2.80;;;13.70;88.80;;;;;;5013544;28;20171;-61
2024/03/26 12:52:32;;;;;;;4.87;4.47;;;13.60;88.60;;;;;;5013270;28;20172;-61
2024/03/26 12:54:58;;;;;;;5.57;3.30;;;13.70;89.50;;;;;;5013555;28;20789;-61
2024/03/26 12:57:24;;;;;;;4.23;3.93;;;13.80;88.50;;;;;;5011774;28;20177;-61
2024/03/26 12:59:49;;;;;;;3.80;3.53;;;13.80;88.10;;;;;;5013094;28;20185;-60
2024/03/26 13:02:15;;;;;;;5.10;3.23;;;13.70;87.60;;;;;;5011154;28;20221;-61
2024/03/26 13:04:41;;;;;;;7.73;3.60;;;13.80;88.00;;;;;;5001645;28;20290;-60
2024/03/26 13:07:07;;;;;;;3.33;3.20;;;13.70;88.10;;;;;;5012950;28;20185;-60
2024/03/26 13:09:32;;;;;;;3.93;3.63;;;13.70;87.10;;;;;;5011224;28;20419;-63
2024/03/26 13:11:58;;;;;;;4.03;3.63;;;13.50;88.00;;;;;;5010326;28;20647;-64
2024/03/26 13:14:24;;;;;;;100.70;75.13;;;13.60;89.10;;;;;;5013901;28;20189;-63
2024/03/26 13:16:50;;;;;;;26.40;19.50;;;13.80;89.60;;;;;;5012088;28;20176;-64
2024/03/26 13:19:15;;;;;;;22.20;18.03;;;13.70;87.80;;;;;;5008684;28;20641;-63
2024/03/26 13:21:45;;;;;;;4.37;3.90;;;13.80;87.50;;;;;;5012458;28;20188;-63